Time;durP1;ratioP1;P1;durP2;ratioP2;P2;SDS_P1;SDS_P2;PMS_P1;PMS_P2;Temp;Humidity;BMP_temperature;BMP_pressure;BME280_temperature;BME280_humidity;BME280_pressure;Samples;Min_cycle;Max_cycle;Signal;HPM_P1;HPM_P2
2022/01/25 00:26:41;;;;;;;53.38;38.75;;;4.30;98.10;;;;;;5075663;28;20066;-78
2022/01/25 00:28:49;;;;;;;50.13;38.67;;;4.30;98.10;;;;;;5042556;28;20053;-82
2022/01/25 00:31:18;;;;;;;56.60;39.80;;;4.30;98.30;;;;;;5058298;28;20125;-72
2022/01/25 00:33:51;;;;;;;55.80;38.97;;;4.30;98.20;;;;;;5075494;28;20040;-80
2022/01/25 00:36:18;;;;;;;55.08;39.05;;;4.30;98.20;;;;;;5058169;28;20070;-80
2022/01/25 00:38:44;;;;;;;52.00;37.72;;;4.30;98.30;;;;;;5058949;28;20044;-81
2022/01/25 00:41:10;;;;;;;55.65;38.90;;;4.30;98.30;;;;;;5059169;28;20119;-81
2022/01/25 00:43:36;;;;;;;54.00;38.65;;;4.40;98.30;;;;;;5058034;28;20132;-81
2022/01/25 00:46:06;;;;;;;57.95;39.88;;;4.30;98.20;;;;;;5076330;28;20084;-81
2022/01/25 00:48:43;;;;;;;55.55;41.72;;;4.30;98.20;;;;;;5074837;28;20397;-81
2022/01/25 00:56:40;;;;;;;56.10;39.28;;;4.30;97.90;;;;;;5075608;28;20044;-81
2022/01/25 00:59:09;;;;;;;54.42;38.92;;;4.20;97.90;;;;;;5075470;28;20040;-80
2022/01/25 01:01:36;;;;;;;53.13;38.50;;;4.20;97.90;;;;;;5075917;28;20822;-78
2022/01/25 01:04:03;;;;;;;50.72;37.53;;;4.30;98.10;;;;;;5075794;28;20078;-81
2022/01/25 01:06:29;;;;;;;59.08;41.45;;;4.30;97.90;;;;;;5057447;28;20041;-81
2022/01/25 01:08:56;;;;;;;54.53;38.55;;;4.30;97.90;;;;;;5059742;28;20110;-79
2022/01/25 01:11:30;;;;;;;53.58;38.67;;;4.20;97.80;;;;;;5074864;28;20150;-80
2022/01/25 01:40:50;;;;;;;55.47;40.03;;;4.30;97.90;;;;;;5071467;28;20447;-80
2022/01/25 01:43:27;;;;;;;58.88;40.47;;;4.30;97.90;;;;;;5071769;28;20135;-77
2022/01/25 01:48:31;;;;;;;58.95;41.08;;;4.30;97.90;;;;;;5071058;28;20060;-78
2022/01/25 01:51:04;;;;;;;54.60;38.58;;;4.30;97.90;;;;;;5071706;28;20097;-78
2022/01/25 01:53:30;;;;;;;56.75;40.67;;;4.20;97.90;;;;;;5071250;28;20166;-74
2022/01/25 01:55:55;;;;;;;50.25;36.92;;;4.20;97.80;;;;;;5071403;28;20072;-76
2022/01/25 01:58:21;;;;;;;52.25;38.08;;;4.30;97.80;;;;;;5072003;28;20451;-79
2022/01/25 02:00:48;;;;;;;51.78;36.75;;;4.30;97.90;;;;;;5054149;28;20427;-78
2022/01/25 02:03:14;;;;;;;53.83;39.42;;;4.30;97.80;;;;;;5071239;28;20041;-79
2022/01/25 02:05:40;;;;;;;56.15;38.30;;;4.20;97.80;;;;;;5071381;28;20051;-74
2022/01/25 02:08:06;;;;;;;54.92;40.13;;;4.30;97.90;;;;;;5070998;28;20032;-78
2022/01/25 02:10:33;;;;;;;52.40;38.35;;;4.30;97.90;;;;;;5071464;28;20524;-78
2022/01/25 02:12:59;;;;;;;54.78;38.40;;;4.30;97.90;;;;;;5071427;28;20400;-79
2022/01/25 02:15:27;;;;;;;56.10;39.15;;;4.20;97.80;;;;;;5053744;28;20048;-76
2022/01/25 02:22:25;;;;;;;54.67;38.67;;;4.20;97.70;;;;;;5071292;28;20481;-75
2022/01/25 02:23:28;;;;;;;52.53;37.78;;;4.20;97.60;;;;;;5069818;28;20052;-79
2022/01/25 02:25:56;;;;;;;52.60;38.55;;;4.20;97.50;;;;;;5071382;28;20392;-79
2022/01/25 02:28:25;;;;;;;57.55;40.03;;;4.20;97.50;;;;;;5070214;28;20489;-79
2022/01/25 02:30:50;;;;;;;56.63;38.40;;;4.20;97.50;;;;;;5070975;28;20577;-80
2022/01/25 02:33:16;;;;;;;54.83;37.47;;;4.20;97.50;;;;;;5067243;28;20087;-79
2022/01/25 02:35:42;;;;;;;52.13;37.67;;;4.20;97.40;;;;;;5070419;28;20396;-80
2022/01/25 02:38:08;;;;;;;60.47;40.47;;;4.20;97.40;;;;;;5070385;28;20071;-79
2022/01/25 02:40:35;;;;;;;56.63;39.50;;;4.20;97.50;;;;;;5070874;28;20131;-79
2022/01/25 02:43:01;;;;;;;56.88;39.00;;;4.20;97.50;;;;;;5069913;28;20106;-80
2022/01/25 02:45:33;;;;;;;54.60;39.03;;;4.20;97.60;;;;;;5072242;28;20052;-78
2022/01/25 02:50:47;;;;;;;58.65;40.45;;;4.20;97.60;;;;;;5069909;28;20488;-78
2022/01/25 02:53:13;;;;;;;58.92;40.97;;;4.20;97.70;;;;;;5057313;28;20524;-77
2022/01/25 02:55:39;;;;;;;52.95;37.65;;;4.20;97.70;;;;;;5071162;28;20186;-78
2022/01/25 02:58:05;;;;;;;59.17;39.47;;;4.20;97.70;;;;;;5069528;28;20122;-77
2022/01/25 03:00:32;;;;;;;56.17;38.72;;;4.20;97.70;;;;;;5059400;28;20041;-79
2022/01/25 03:02:57;;;;;;;55.10;37.80;;;4.20;97.70;;;;;;5058156;28;20048;-78
2022/01/25 03:05:23;;;;;;;57.08;39.92;;;4.20;97.70;;;;;;5052991;28;20496;-79
2022/01/25 03:07:49;;;;;;;57.13;40.38;;;4.20;97.80;;;;;;5066110;28;20149;-79
2022/01/25 03:10:15;;;;;;;56.22;39.80;;;4.20;97.80;;;;;;5070125;28;20040;-76
2022/01/25 03:17:45;;;;;;;56.53;38.53;;;4.20;98.00;;;;;;5069579;28;20041;-78
2022/01/25 03:20:18;;;;;;;57.47;38.97;;;4.20;97.90;;;;;;5052965;28;20028;-78
2022/01/25 03:23:15;;;;;;;57.33;39.30;;;4.20;97.80;;;;;;5051050;28;20052;-80
2022/01/25 03:25:30;;;;;;;54.58;37.03;;;4.20;97.70;;;;;;5062720;28;20056;-77
2022/01/25 03:27:57;;;;;;;55.33;37.10;;;4.20;97.70;;;;;;5069443;28;20039;-77
2022/01/25 03:30:24;;;;;;;51.72;37.47;;;4.20;97.60;;;;;;5069350;28;20040;-77
2022/01/25 03:32:49;;;;;;;50.42;36.20;;;4.10;97.60;;;;;;5069371;28;20052;-77
2022/01/25 03:35:15;;;;;;;53.95;36.40;;;4.10;97.70;;;;;;5065786;28;20028;-71
2022/01/25 03:37:41;;;;;;;59.10;37.92;;;4.20;97.80;;;;;;5070384;28;20055;-80
2022/01/25 03:40:07;;;;;;;57.72;37.28;;;4.20;97.90;;;;;;5064905;28;20037;-79
2022/01/25 03:42:36;;;;;;;57.55;39.17;;;4.20;98.10;;;;;;5069130;28;20040;-79
2022/01/25 03:45:04;;;;;;;58.00;38.28;;;4.10;97.90;;;;;;5082396;28;20099;-80
2022/01/25 03:47:43;;;;;;;54.60;37.65;;;4.10;97.80;;;;;;5065169;28;20048;-79
2022/01/25 03:50:09;;;;;;;55.28;36.97;;;4.10;97.80;;;;;;5088264;28;20051;-80
2022/01/25 03:52:36;;;;;;;52.08;37.65;;;4.10;97.80;;;;;;5074066;28;20044;-74
2022/01/25 03:55:04;;;;;;;54.47;37.05;;;4.10;97.90;;;;;;5072880;28;20036;-81
2022/01/25 03:57:30;;;;;;;52.15;37.90;;;4.10;97.80;;;;;;5073630;28;20054;-75
2022/01/25 04:00:00;;;;;;;54.42;37.95;;;4.10;97.80;;;;;;5089381;28;20492;-77
2022/01/25 04:02:30;;;;;;;53.55;37.45;;;4.00;97.80;;;;;;5056651;28;20059;-79
2022/01/25 04:04:57;;;;;;;55.55;37.65;;;4.10;97.80;;;;;;5056048;28;20426;-79
2022/01/25 04:07:31;;;;;;;56.40;37.88;;;4.10;97.70;;;;;;5056082;28;20066;-81
2022/01/25 04:09:56;;;;;;;53.25;37.17;;;4.10;97.70;;;;;;5055782;28;20437;-80
2022/01/25 04:12:22;;;;;;;53.88;37.33;;;4.10;97.70;;;;;;5073248;28;20132;-81
2022/01/25 04:14:48;;;;;;;55.03;36.05;;;4.10;97.70;;;;;;5054655;28;20047;-78
2022/01/25 04:17:18;;;;;;;55.47;37.20;;;4.00;97.80;;;;;;5073049;28;20052;-81
2022/01/25 04:19:57;;;;;;;59.10;39.00;;;4.10;97.70;;;;;;5062732;28;20538;-81
2022/01/25 04:25:05;;;;;;;54.85;36.35;;;4.10;97.80;;;;;;5071930;28;20106;-80
2022/01/25 04:27:32;;;;;;;56.63;38.20;;;4.00;97.70;;;;;;5072971;28;20400;-80
2022/01/25 04:29:58;;;;;;;57.58;37.38;;;4.10;97.80;;;;;;5063084;28;20473;-79
2022/01/25 04:32:40;;;;;;;53.83;36.22;;;4.10;97.80;;;;;;5073027;28;20047;-80
2022/01/25 04:35:13;;;;;;;56.05;37.90;;;4.10;97.80;;;;;;5061968;28;20044;-78
2022/01/25 04:48:57;;;;;;;53.63;34.65;;;4.10;97.80;;;;;;5078906;28;20048;-79
2022/01/25 04:51:40;;;;;;;55.90;37.38;;;4.00;97.70;;;;;;5051099;28;20036;-75
2022/01/25 04:54:19;;;;;;;56.92;36.38;;;4.00;97.80;;;;;;5073678;28;20501;-79
2022/01/25 04:57:01;;;;;;;53.63;36.00;;;4.00;97.80;;;;;;5075737;28;20052;-81
2022/01/25 04:59:35;;;;;;;62.30;40.13;;;4.00;97.70;;;;;;5075757;28;20547;-81
2022/01/25 05:02:52;;;;;;;59.45;38.65;;;4.00;97.70;;;;;;5059421;28;20055;-79
2022/01/25 05:04:55;;;;;;;51.90;35.35;;;4.00;97.70;;;;;;5074777;28;20082;-78
2022/01/25 05:07:41;;;;;;;61.22;39.33;;;4.00;97.70;;;;;;5076402;28;20075;-79
2022/01/25 05:10:08;;;;;;;58.53;36.50;;;4.00;97.70;;;;;;5074768;28;20444;-79
2022/01/25 05:12:41;;;;;;;54.28;35.60;;;4.00;97.90;;;;;;5057239;28;20044;-78
2022/01/25 05:15:39;;;;;;;57.13;36.20;;;4.00;97.90;;;;;;5054605;28;20036;-80
2022/01/25 05:18:23;;;;;;;55.20;36.15;;;4.00;98.00;;;;;;5071440;28;20113;-78
2022/01/25 05:23:33;;;;;;;56.40;38.42;;;4.00;98.00;;;;;;5072836;28;20501;-80
2022/01/25 05:25:58;;;;;;;58.10;39.38;;;4.00;97.90;;;;;;5060361;28;20047;-72
2022/01/25 05:28:24;;;;;;;59.40;36.92;;;4.00;98.00;;;;;;5075768;28;20052;-78
2022/01/25 05:30:50;;;;;;;59.67;36.92;;;4.00;98.00;;;;;;5075096;28;20119;-78
2022/01/25 05:33:16;;;;;;;60.25;38.55;;;4.00;98.00;;;;;;5075320;28;20087;-78
2022/01/25 05:35:42;;;;;;;57.50;37.45;;;4.00;98.00;;;;;;5075424;28;20088;-81
2022/01/25 05:38:08;;;;;;;55.92;36.03;;;4.00;98.10;;;;;;5058011;28;20095;-79
2022/01/25 05:40:43;;;;;;;56.83;37.15;;;4.00;98.00;;;;;;5075449;28;20040;-81
2022/01/25 05:45:57;;;;;;;55.38;36.33;;;4.00;98.00;;;;;;5074958;28;20048;-79
2022/01/25 05:48:24;;;;;;;57.42;36.63;;;4.00;97.90;;;;;;5068696;28;20164;-80
2022/01/25 05:50:50;;;;;;;55.72;37.38;;;4.00;98.00;;;;;;5086944;28;20056;-80
2022/01/25 05:53:16;;;;;;;57.90;37.85;;;4.00;98.10;;;;;;5071059;28;20035;-80
2022/01/25 05:55:42;;;;;;;56.65;37.70;;;4.00;98.00;;;;;;5071865;28;20036;-82
2022/01/25 05:58:07;;;;;;;56.72;36.97;;;4.00;98.00;;;;;;5054541;28;20435;-79
2022/01/25 06:00:33;;;;;;;59.67;38.65;;;4.00;98.10;;;;;;5054878;28;20049;-78
2022/01/25 06:02:59;;;;;;;59.15;37.25;;;4.00;98.10;;;;;;5054330;28;20067;-79
2022/01/25 06:05:25;;;;;;;58.58;39.50;;;4.00;98.20;;;;;;5071559;28;20079;-77
2022/01/25 06:07:51;;;;;;;60.50;37.70;;;4.00;98.20;;;;;;5070520;28;20056;-79
2022/01/25 06:10:17;;;;;;;58.05;37.75;;;4.10;98.20;;;;;;5072244;28;20166;-77
2022/01/25 06:12:44;;;;;;;54.33;37.35;;;4.00;98.10;;;;;;5054411;28;20549;-76
2022/01/25 06:15:11;;;;;;;59.00;37.42;;;4.00;98.10;;;;;;5070944;28;20049;-79
2022/01/25 06:17:37;;;;;;;57.30;37.25;;;4.00;98.10;;;;;;5054397;28;20048;-76
2022/01/25 06:20:04;;;;;;;59.88;39.03;;;4.00;98.10;;;;;;5071156;28;20048;-78
2022/01/25 06:22:29;;;;;;;58.28;37.97;;;4.00;98.20;;;;;;5054122;28;20101;-78
2022/01/25 06:24:55;;;;;;;60.13;38.40;;;4.00;98.30;;;;;;5062014;28;20533;-72
2022/01/25 06:27:21;;;;;;;63.35;40.08;;;4.00;98.40;;;;;;5062835;28;20047;-78
2022/01/25 06:29:47;;;;;;;60.35;40.35;;;4.00;98.40;;;;;;5068216;28;20106;-79
2022/01/25 06:32:14;;;;;;;60.78;38.10;;;4.00;98.40;;;;;;5088360;28;20044;-78
2022/01/25 06:34:39;;;;;;;60.33;39.35;;;4.00;98.40;;;;;;5070191;28;20048;-78
2022/01/25 06:37:05;;;;;;;63.00;39.28;;;4.00;98.40;;;;;;5071150;28;20052;-75
2022/01/25 06:39:31;;;;;;;59.35;38.42;;;3.90;98.40;;;;;;5054089;28;20051;-79
2022/01/25 06:41:57;;;;;;;55.10;36.42;;;4.00;98.50;;;;;;5070154;28;20037;-79
2022/01/25 06:44:23;;;;;;;59.08;35.58;;;4.00;98.60;;;;;;5067798;28;20040;-79
2022/01/25 06:46:48;;;;;;;63.40;39.08;;;4.00;98.60;;;;;;5053823;28;20051;-79
2022/01/25 06:49:14;;;;;;;60.33;36.85;;;4.00;98.60;;;;;;5053415;28;20059;-78
2022/01/25 06:51:40;;;;;;;59.80;37.88;;;4.00;98.70;;;;;;5051639;28;20433;-79
2022/01/25 06:54:07;;;;;;;55.03;36.65;;;4.00;98.70;;;;;;5067101;28;20064;-78
2022/01/25 06:56:33;;;;;;;65.75;38.95;;;4.10;98.70;;;;;;5067154;28;20049;-78
2022/01/25 06:58:58;;;;;;;60.20;37.45;;;4.00;98.70;;;;;;5082258;28;20044;-79
2022/01/25 07:01:24;;;;;;;55.53;36.42;;;4.00;98.70;;;;;;5070570;28;20146;-80
2022/01/25 07:03:49;;;;;;;57.47;37.95;;;4.00;98.90;;;;;;5069165;28;20051;-80
2022/01/25 07:06:15;;;;;;;61.85;38.60;;;4.00;98.70;;;;;;5070303;28;20473;-81
2022/01/25 07:08:44;;;;;;;58.28;36.75;;;4.00;98.60;;;;;;5053568;28;20177;-78
2022/01/25 07:11:10;;;;;;;63.88;39.60;;;4.00;98.70;;;;;;5069834;28;20547;-80
2022/01/25 07:13:36;;;;;;;57.15;38.10;;;4.00;98.70;;;;;;5053151;28;20044;-85
2022/01/25 07:16:02;;;;;;;56.85;37.80;;;4.00;98.70;;;;;;5053852;28;20132;-81
2022/01/25 07:18:28;;;;;;;55.95;38.70;;;4.00;98.60;;;;;;5068591;28;20072;-79
2022/01/25 07:20:53;;;;;;;58.63;36.58;;;4.00;98.70;;;;;;5070041;28;20134;-79
2022/01/25 07:23:19;;;;;;;53.15;35.25;;;4.00;98.70;;;;;;5068977;28;20041;-80
2022/01/25 07:25:45;;;;;;;58.33;37.40;;;4.00;98.80;;;;;;5055536;28;20040;-80
2022/01/25 07:28:10;;;;;;;61.55;38.78;;;4.00;98.80;;;;;;5062228;28;20486;-78
2022/01/25 07:30:36;;;;;;;62.03;39.67;;;4.00;98.90;;;;;;5054012;28;20093;-78
2022/01/25 07:33:05;;;;;;;59.75;38.63;;;4.10;98.70;;;;;;5061669;28;20098;-73
2022/01/25 07:35:33;;;;;;;57.83;37.97;;;4.00;98.70;;;;;;5053012;28;20086;-77
2022/01/25 07:37:59;;;;;;;57.25;36.83;;;4.00;98.80;;;;;;5063115;28;20124;-80
2022/01/25 07:40:25;;;;;;;59.95;37.03;;;4.00;98.90;;;;;;5051431;28;20044;-78
2022/01/25 07:42:50;;;;;;;69.57;40.95;;;4.00;98.90;;;;;;5051587;28;20416;-78
2022/01/25 07:45:16;;;;;;;62.38;40.13;;;4.00;98.90;;;;;;5054495;28;20036;-78
2022/01/25 07:47:42;;;;;;;56.38;37.35;;;4.00;98.80;;;;;;5068433;28;20131;-79
2022/01/25 07:50:09;;;;;;;55.75;35.22;;;4.00;98.80;;;;;;5069769;28;20041;-78
2022/01/25 07:52:35;;;;;;;61.58;38.75;;;4.00;98.80;;;;;;5068666;28;20052;-78
2022/01/25 07:55:01;;;;;;;53.05;33.25;;;4.00;98.90;;;;;;5052914;28;20131;-80
2022/01/25 07:57:26;;;;;;;59.28;37.88;;;4.00;99.00;;;;;;5069751;28;20047;-79
2022/01/25 07:59:52;;;;;;;60.85;38.95;;;4.10;99.00;;;;;;5068870;28;20448;-80
2022/01/25 08:02:19;;;;;;;57.50;37.50;;;4.10;98.80;;;;;;5086159;28;20080;-80
2022/01/25 08:04:46;;;;;;;55.65;38.30;;;4.10;98.80;;;;;;5068176;28;20048;-80
2022/01/25 08:07:12;;;;;;;53.85;34.35;;;4.10;98.80;;;;;;5052122;28;20542;-72
2022/01/25 08:09:38;;;;;;;59.83;38.80;;;4.10;98.80;;;;;;5069122;28;20048;-74
2022/01/25 08:12:04;;;;;;;61.70;39.80;;;4.10;99.00;;;;;;5068769;28;20105;-77
2022/01/25 08:14:31;;;;;;;61.47;37.45;;;4.10;98.60;;;;;;5069221;28;20095;-80
2022/01/25 08:16:56;;;;;;;61.22;37.72;;;4.00;98.60;;;;;;5068907;28;20045;-80
2022/01/25 08:19:22;;;;;;;63.25;39.47;;;4.00;98.70;;;;;;5069684;28;20458;-80
2022/01/25 08:21:48;;;;;;;57.55;37.08;;;4.00;98.80;;;;;;5068208;28;20047;-80
2022/01/25 08:24:18;;;;;;;57.35;37.80;;;4.00;98.80;;;;;;5052828;28;20525;-81
2022/01/25 08:26:44;;;;;;;64.50;40.65;;;4.00;98.80;;;;;;5069428;28;20124;-79
2022/01/25 08:29:11;;;;;;;63.83;39.35;;;4.00;98.80;;;;;;5068775;28;20048;-80
2022/01/25 08:31:39;;;;;;;62.28;38.90;;;4.00;98.80;;;;;;5071856;28;20036;-80
2022/01/25 08:34:05;;;;;;;62.38;40.40;;;4.00;98.60;;;;;;5072678;28;20055;-79
2022/01/25 08:36:31;;;;;;;60.97;38.65;;;4.00;98.60;;;;;;5073220;28;20101;-79
2022/01/25 08:38:57;;;;;;;63.10;39.85;;;4.10;98.70;;;;;;5090095;28;20045;-81
2022/01/25 08:41:23;;;;;;;62.13;36.97;;;4.00;98.60;;;;;;5072622;28;20127;-80
2022/01/25 08:43:49;;;;;;;60.38;38.50;;;4.10;98.60;;;;;;5055313;28;20041;-78
2022/01/25 08:46:15;;;;;;;61.75;37.88;;;4.10;98.60;;;;;;5074490;28;20381;-72
2022/01/25 08:48:42;;;;;;;61.38;37.78;;;4.10;98.60;;;;;;5055359;28;20048;-80
2022/01/25 08:51:07;;;;;;;62.25;38.20;;;4.10;98.50;;;;;;5073176;28;20044;-80
2022/01/25 08:53:34;;;;;;;60.58;39.00;;;4.10;98.70;;;;;;5055848;28;20397;-80
2022/01/25 08:55:59;;;;;;;60.95;39.05;;;4.10;98.40;;;;;;5056128;28;20389;-79
2022/01/25 08:58:25;;;;;;;61.38;38.63;;;4.10;98.40;;;;;;5072648;28;20054;-74
2022/01/25 09:00:51;;;;;;;65.13;39.97;;;4.10;98.20;;;;;;5055993;28;20056;-81
2022/01/25 09:03:17;;;;;;;62.10;40.67;;;4.10;98.20;;;;;;5055331;28;20111;-81
2022/01/25 09:05:43;;;;;;;62.22;38.25;;;4.10;98.30;;;;;;5072727;28;20048;-80
2022/01/25 09:08:10;;;;;;;57.25;37.72;;;4.20;98.40;;;;;;5055357;28;20037;-81
2022/01/25 09:10:35;;;;;;;60.60;37.97;;;4.20;98.30;;;;;;5072081;28;20044;-80
2022/01/25 09:13:03;;;;;;;61.03;38.50;;;4.20;98.30;;;;;;5072037;28;20052;-83
2022/01/25 09:15:30;;;;;;;63.85;39.53;;;4.20;98.30;;;;;;5059499;28;20041;-80
2022/01/25 09:17:56;;;;;;;63.28;39.67;;;4.20;98.20;;;;;;5071214;28;20386;-80
2022/01/25 09:20:21;;;;;;;62.22;39.28;;;4.20;98.20;;;;;;5068841;28;20039;-71
2022/01/25 09:22:47;;;;;;;58.38;38.42;;;4.20;98.30;;;;;;5054022;28;20036;-82
2022/01/25 09:25:13;;;;;;;59.50;37.88;;;4.20;98.30;;;;;;5071110;28;20100;-82
2022/01/25 09:27:39;;;;;;;64.50;39.70;;;4.20;98.40;;;;;;5072201;28;20119;-82
2022/01/25 09:30:06;;;;;;;62.60;39.15;;;4.10;98.40;;;;;;5048243;28;20060;-81
2022/01/25 09:32:32;;;;;;;58.00;38.58;;;4.20;98.40;;;;;;5065137;28;20110;-81
2022/01/25 09:34:57;;;;;;;56.42;37.85;;;4.20;98.50;;;;;;5071450;28;20469;-81
2022/01/25 09:37:23;;;;;;;56.50;37.53;;;4.20;98.50;;;;;;5051762;28;20580;-79
2022/01/25 09:39:49;;;;;;;57.60;38.00;;;4.20;98.40;;;;;;5066800;28;20095;-81
2022/01/25 09:42:16;;;;;;;63.03;37.08;;;4.20;98.40;;;;;;5053879;28;20075;-75
2022/01/25 09:44:42;;;;;;;62.92;36.55;;;4.20;98.40;;;;;;5060860;28;20428;-81
2022/01/25 09:47:09;;;;;;;60.60;36.55;;;4.20;98.50;;;;;;5071242;28;20043;-81
2022/01/25 09:49:36;;;;;;;60.70;37.45;;;4.20;98.40;;;;;;5069382;28;20080;-80
2022/01/25 09:52:03;;;;;;;61.63;38.17;;;4.30;98.40;;;;;;5063247;28;20200;-80
2022/01/25 09:54:31;;;;;;;62.65;38.78;;;4.30;98.40;;;;;;5053637;28;20387;-81
2022/01/25 09:56:57;;;;;;;62.22;38.80;;;4.30;98.30;;;;;;5034919;28;20179;-81
2022/01/25 09:59:26;;;;;;;61.33;39.08;;;4.30;98.30;;;;;;5068833;28;20131;-82
2022/01/25 10:01:52;;;;;;;59.25;36.95;;;4.40;98.40;;;;;;5071845;28;20053;-82
2022/01/25 10:04:36;;;;;;;59.58;37.08;;;4.30;98.40;;;;;;5071726;28;20512;-81
2022/01/25 10:07:04;;;;;;;59.15;37.95;;;4.40;98.50;;;;;;5070758;28;20047;-81
2022/01/25 10:09:31;;;;;;;57.88;36.92;;;4.40;98.60;;;;;;5071988;28;20036;-81
2022/01/25 10:11:57;;;;;;;58.85;36.15;;;4.40;98.50;;;;;;5055570;28;20083;-81
2022/01/25 10:14:25;;;;;;;58.28;37.05;;;4.30;98.50;;;;;;5069343;28;20040;-82
2022/01/25 10:16:55;;;;;;;60.33;36.70;;;4.40;98.50;;;;;;5070737;28;20041;-81
2022/01/25 10:19:25;;;;;;;59.58;38.13;;;4.40;98.50;;;;;;5069646;28;20052;-81
2022/01/25 10:21:52;;;;;;;58.80;36.00;;;4.40;98.40;;;;;;5053636;28;20054;-81
2022/01/25 10:24:24;;;;;;;56.95;36.33;;;4.40;98.30;;;;;;5055041;28;20102;-81
2022/01/25 10:27:01;;;;;;;58.90;37.60;;;4.40;98.30;;;;;;5070262;28;20040;-81
2022/01/25 10:29:48;;;;;;;57.47;36.75;;;4.50;98.20;;;;;;5088618;28;20056;-81
2022/01/25 10:32:15;;;;;;;61.22;37.35;;;4.50;98.20;;;;;;5070542;28;20048;-81
2022/01/25 10:34:46;;;;;;;63.10;36.85;;;4.50;98.20;;;;;;5071377;28;20059;-81
2022/01/25 10:37:16;;;;;;;63.20;36.40;;;4.50;98.00;;;;;;5071014;28;20047;-81
2022/01/25 10:39:45;;;;;;;59.72;36.15;;;4.40;98.00;;;;;;5070124;28;20564;-81
2022/01/25 10:42:25;;;;;;;59.10;36.28;;;4.50;98.00;;;;;;5070778;28;20064;-78
2022/01/25 10:44:58;;;;;;;64.10;37.67;;;4.50;98.00;;;;;;5054247;28;20044;-81
2022/01/25 10:47:45;;;;;;;58.72;35.95;;;4.50;98.10;;;;;;5071656;28;20049;-81
2022/01/25 10:50:17;;;;;;;58.53;37.17;;;4.50;98.00;;;;;;5054503;28;20148;-81
2022/01/25 10:52:45;;;;;;;60.22;36.40;;;4.50;98.10;;;;;;5071996;28;20483;-81
2022/01/25 10:55:11;;;;;;;58.00;36.75;;;4.50;98.10;;;;;;5036926;28;20040;-75
2022/01/25 10:57:37;;;;;;;54.78;35.42;;;4.60;98.10;;;;;;5070834;28;20051;-81
2022/01/25 11:00:11;;;;;;;56.47;34.95;;;4.50;98.10;;;;;;5091575;28;20515;-80
2022/01/25 11:02:50;;;;;;;61.90;36.92;;;4.60;98.20;;;;;;5059026;28;20052;-81
2022/01/25 11:05:17;;;;;;;58.35;36.92;;;4.60;98.20;;;;;;5054362;28;20048;-80
2022/01/25 11:07:46;;;;;;;49.88;33.03;;;4.60;98.10;;;;;;5055581;28;20476;-81
2022/01/25 11:10:20;;;;;;;51.22;32.63;;;4.60;98.10;;;;;;5073752;28;20048;-81
2022/01/25 11:13:01;;;;;;;57.38;34.88;;;4.60;98.20;;;;;;5073535;28;20184;-81
2022/01/25 11:15:27;;;;;;;58.63;36.17;;;4.60;98.10;;;;;;5073139;28;20044;-81
2022/01/25 11:17:52;;;;;;;59.95;34.90;;;4.70;98.10;;;;;;5073204;28;20043;-81
2022/01/25 11:20:18;;;;;;;58.33;35.72;;;4.60;98.00;;;;;;5073692;28;20036;-81
2022/01/25 11:22:45;;;;;;;56.10;34.40;;;4.60;98.10;;;;;;5072996;28;20036;-82
2022/01/25 11:25:14;;;;;;;56.25;34.15;;;4.60;98.10;;;;;;5073489;28;20089;-81
2022/01/25 11:27:42;;;;;;;57.85;34.05;;;4.60;98.20;;;;;;5073499;28;20040;-81
2022/01/25 11:30:15;;;;;;;56.95;34.00;;;4.70;98.20;;;;;;5055953;28;20043;-80
2022/01/25 11:32:46;;;;;;;52.53;33.88;;;4.70;98.20;;;;;;5073338;28;20493;-81
2022/01/25 11:35:15;;;;;;;56.13;34.78;;;4.70;98.10;;;;;;5071661;28;20427;-81
2022/01/25 11:37:43;;;;;;;49.92;30.80;;;4.70;98.20;;;;;;5073400;28;20113;-81
2022/01/25 11:40:29;;;;;;;55.63;34.20;;;4.70;98.10;;;;;;5072724;28;20047;-81
2022/01/25 11:42:58;;;;;;;53.50;34.28;;;4.80;98.30;;;;;;5055640;28;20170;-76
2022/01/25 11:45:27;;;;;;;56.95;33.25;;;4.80;98.30;;;;;;5056765;28;20349;-81
2022/01/25 11:47:54;;;;;;;56.33;34.85;;;4.80;98.20;;;;;;5069186;28;20083;-81
2022/01/25 11:50:32;;;;;;;56.25;34.47;;;4.80;98.20;;;;;;5068301;28;20115;-80
2022/01/25 11:53:06;;;;;;;60.28;33.22;;;4.70;98.10;;;;;;5052852;28;20058;-78
2022/01/25 11:55:47;;;;;;;56.00;32.83;;;4.80;98.20;;;;;;5051247;28;20103;-80
2022/01/25 11:58:24;;;;;;;54.95;33.80;;;4.80;98.20;;;;;;5068399;28;20047;-72
2022/01/25 12:00:55;;;;;;;55.75;34.55;;;4.80;98.10;;;;;;5067538;28;20040;-82
2022/01/25 12:03:21;;;;;;;54.20;33.80;;;4.80;98.10;;;;;;5066853;28;20084;-75
2022/01/25 12:06:01;;;;;;;53.30;33.33;;;4.80;98.10;;;;;;5064123;28;20072;-81
2022/01/25 12:08:41;;;;;;;57.00;33.78;;;4.80;97.90;;;;;;5064001;28;20059;-81
2022/01/25 12:11:28;;;;;;;54.55;33.42;;;4.80;98.10;;;;;;5077147;28;20481;-81
2022/01/25 12:14:18;;;;;;;55.72;34.40;;;4.80;98.00;;;;;;5066997;28;20048;-77
2022/01/25 12:16:49;;;;;;;51.13;32.28;;;4.80;98.10;;;;;;5065521;28;20052;-82
2022/01/25 12:19:17;;;;;;;57.88;34.63;;;4.80;98.10;;;;;;5069276;28;20052;-72
2022/01/25 12:24:36;;;;;;;52.13;32.92;;;4.80;98.10;;;;;;5069058;28;20496;-81
2022/01/25 12:27:23;;;;;;;57.80;33.90;;;4.80;98.00;;;;;;5063536;28;20047;-83
2022/01/25 12:30:04;;;;;;;57.42;34.17;;;4.80;98.00;;;;;;5051331;28;20052;-82
2022/01/25 12:32:33;;;;;;;55.60;33.90;;;4.90;98.00;;;;;;5067124;28;20056;-72
2022/01/25 12:35:12;;;;;;;57.45;35.20;;;4.90;98.00;;;;;;5049113;28;20044;-80
2022/01/25 12:37:43;;;;;;;52.17;32.17;;;4.90;98.00;;;;;;5063177;28;20048;-81
2022/01/25 12:40:24;;;;;;;50.90;33.45;;;4.90;98.00;;;;;;5068767;28;20052;-78
2022/01/25 12:42:54;;;;;;;52.30;33.17;;;4.90;97.90;;;;;;5068617;28;20511;-80
2022/01/25 12:45:21;;;;;;;56.05;34.55;;;4.90;97.80;;;;;;5069305;28;20040;-81
2022/01/25 12:47:52;;;;;;;52.72;33.15;;;4.80;97.80;;;;;;5066538;28;20048;-81
2022/01/25 12:50:18;;;;;;;60.30;32.80;;;4.90;97.80;;;;;;5069329;28;20127;-79
2022/01/25 12:52:46;;;;;;;55.10;32.38;;;4.90;97.80;;;;;;5057037;28;20148;-71
2022/01/25 12:55:13;;;;;;;56.42;34.15;;;4.90;97.70;;;;;;5032725;28;20041;-71
2022/01/25 12:57:45;;;;;;;56.40;34.20;;;4.80;97.60;;;;;;5049312;28;20045;-80
2022/01/25 13:00:11;;;;;;;;;;;4.90;97.60;;;;;;5060137;28;20052;-80
2022/01/25 13:02:37;;;;;;;55.78;32.95;;;4.80;97.60;;;;;;5068415;28;19948;-80
2022/01/25 13:05:17;;;;;;;57.28;34.17;;;4.80;97.80;;;;;;5055477;28;20473;-71
2022/01/25 13:07:43;;;;;;;56.80;33.40;;;4.80;97.90;;;;;;5064248;28;20079;-71
2022/01/25 13:10:11;;;;;;;57.60;34.85;;;4.80;97.90;;;;;;5068178;28;20036;-72
2022/01/25 13:12:54;;;;;;;59.17;35.10;;;4.80;98.00;;;;;;5065517;28;20041;-81
2022/01/25 13:15:52;;;;;;;55.85;34.03;;;4.80;98.00;;;;;;5048066;28;20041;-82
2022/01/25 13:18:18;;;;;;;57.25;34.50;;;4.80;98.00;;;;;;5035589;28;20094;-81
2022/01/25 13:20:47;;;;;;;53.85;32.90;;;4.80;98.10;;;;;;5049994;28;20048;-80
2022/01/25 13:23:13;;;;;;;56.92;35.17;;;4.90;98.10;;;;;;5055586;28;20097;-80
2022/01/25 13:25:55;;;;;;;53.58;33.63;;;4.90;98.00;;;;;;5066917;28;20443;-81
2022/01/25 13:28:36;;;;;;;53.80;32.60;;;4.80;97.90;;;;;;5050087;28;20047;-82
2022/01/25 13:31:14;;;;;;;57.47;32.85;;;4.90;98.00;;;;;;5070265;28;20128;-82
2022/01/25 13:33:40;;;;;;;52.83;31.77;;;4.90;98.00;;;;;;5070620;28;20043;-82
2022/01/25 13:36:08;;;;;;;55.75;33.65;;;4.80;98.00;;;;;;5054293;28;20041;-77
2022/01/25 13:38:39;;;;;;;54.50;33.65;;;4.80;98.10;;;;;;5071013;28;20493;-83
2022/01/25 13:46:27;;;;;;;52.30;31.08;;;4.90;98.00;;;;;;5071963;28;20106;-84
2022/01/25 13:48:55;;;;;;;58.03;31.13;;;4.80;98.00;;;;;;5053118;28;20132;-81
2022/01/25 13:51:24;;;;;;;56.58;32.92;;;4.80;98.00;;;;;;5070151;28;20045;-81
2022/01/25 13:53:59;;;;;;;53.45;33.30;;;4.80;98.00;;;;;;5095233;28;20105;-74
2022/01/25 13:56:33;;;;;;;49.33;31.70;;;4.80;98.00;;;;;;5051785;28;20417;-81
2022/01/25 13:59:00;;;;;;;54.20;30.63;;;4.80;98.10;;;;;;5071478;28;20072;-82
2022/01/25 14:01:28;;;;;;;58.15;31.52;;;4.80;98.20;;;;;;5072124;28;20048;-81
2022/01/25 14:04:13;;;;;;;49.75;30.40;;;4.80;98.30;;;;;;5070476;28;20040;-82
2022/01/25 14:06:41;;;;;;;54.38;31.75;;;4.80;98.40;;;;;;5054358;28;20051;-82
2022/01/25 14:09:14;;;;;;;53.30;30.92;;;4.80;98.30;;;;;;5058312;28;20124;-81
2022/01/25 14:23:22;;;;;;;51.75;27.42;;;4.80;98.20;;;;;;5071178;28;20044;-81
2022/01/25 14:25:49;;;;;;;52.72;29.30;;;4.80;98.10;;;;;;5029519;28;20059;-82
2022/01/25 14:28:19;;;;;;;47.05;28.27;;;4.80;98.30;;;;;;5066998;28;20110;-72
2022/01/25 14:30:48;;;;;;;47.88;29.80;;;4.80;98.30;;;;;;5067359;28;20504;-79
2022/01/25 14:33:20;;;;;;;51.80;29.95;;;4.80;98.30;;;;;;5064248;28;20060;-80
2022/01/25 14:35:47;;;;;;;56.08;30.05;;;4.90;98.20;;;;;;5068217;28;20059;-79
2022/01/25 14:38:21;;;;;;;47.20;27.83;;;4.80;98.30;;;;;;5070105;28;20036;-79